San Isidro, León

latitud = 43° 03' 48''N | longitud = 05° 22' 33''W
1510 metros sobre el nivel del mar | datos mensuales

Fecha, hora, temperatura, viento dirección y velocidad, humedad y presión.

  • 22-11-2017 09:00:00 | 9.00°C | Sudoeste |17.00 km/h | 34.00% | 846.80 hPa
  • 22-11-2017 08:00:00 | 7.70°C | Sudoeste |15.00 km/h | 40.00% | 847.10 hPa
  • 22-11-2017 07:00:00 | 3.70°C | Este |12.00 km/h | 56.00% | 847.40 hPa
  • 22-11-2017 06:00:00 | 8.50°C | Sur |15.00 km/h | 36.00% | 847.40 hPa
  • 22-11-2017 05:00:00 | 7.40°C | Sudoeste |14.00 km/h | 39.00% | 848.00 hPa
  • 22-11-2017 04:00:00 | 1.50°C | Este |5.00 km/h | 64.00% | 848.80 hPa
  • 22-11-2017 03:00:00 | 1.20°C | Noroeste |5.00 km/h | 60.00% | 849.40 hPa
  • 22-11-2017 02:00:00 | 1.90°C | Sudeste |4.00 km/h | 56.00% | 850.20 hPa
  • 22-11-2017 01:00:00 | 1.20°C | Sudoeste |5.00 km/h | 51.00% | 850.40 hPa
  • 22-11-2017 00:00:00 | -0.40°C | Sudeste |3.00 km/h | 64.00% | 850.90 hPa
  • 21-11-2017 23:00:00 | 0.10°C | Sur |3.00 km/h | 65.00% | 851.20 hPa
  • 21-11-2017 22:00:00 | 0.40°C | Este |4.00 km/h | 61.00% | 851.20 hPa
  • 21-11-2017 21:00:00 | 0.00°C | Sur |3.00 km/h | 59.00% | 851.60 hPa
  • 21-11-2017 20:00:00 | 2.00°C | Oeste |4.00 km/h | 53.00% | 851.60 hPa
  • 21-11-2017 19:00:00 | 5.70°C | Sudeste |6.00 km/h | 42.00% | 851.50 hPa
  • 21-11-2017 18:00:00 | 9.20°C | Sur |13.00 km/h | 30.00% | 851.60 hPa
  • 21-11-2017 17:00:00 | 10.60°C | Este |9.00 km/h | 27.00% | 851.70 hPa
  • 21-11-2017 16:00:00 | 12.20°C | Este |11.00 km/h | 23.00% | 852.10 hPa
  • 21-11-2017 15:00:00 | 11.90°C | Este |17.00 km/h | 26.00% | 852.60 hPa
  • 21-11-2017 14:00:00 | 11.00°C | Este |16.00 km/h | 29.00% | 853.10 hPa
  • 21-11-2017 13:00:00 | 10.20°C | Este |17.00 km/h | 31.00% | 853.80 hPa
  • 21-11-2017 12:00:00 | 8.30°C | Este |5.00 km/h | 39.00% | 853.80 hPa
  • 21-11-2017 11:00:00 | 3.30°C | Sudeste |4.00 km/h | 57.00% | 854.00 hPa
  • 21-11-2017 10:00:00 | -2.10°C | Calma |0.00 km/h | 68.00% | 854.00 hPa
    • Datos gráficos mensuales

      Datos de los últimos 12 meses presentados en formato gráfico, recomendamos un ordenador de sobremesa para su consulta.
      En dispositivos móviles descargar un plugin que adapte flhas.
      Últimos 12 meses meteorológicos de San Isidro, en León:https://meteorologia.tike10.com/san-isidro-leon.php
      Histórico, desde el año ... : ..